X  Fechar Metar - Info de Aeroporto     EDDK Cologne Bonn Airport
Temperatura
19°C Temperatura
12°C Ptº Orvalho
64% Humidade



Vento
7 M/S
16 MPH
26 KM/H
14 NÓS



300°
ONO
Condições Atuais

Pouco Nublado Pouco Nublado
Pressão 1005.76 (hPa) - 29.7 (inHg)
Visibilidade 6 (milha) - 9.7 (km)
Aeroporto
Código-Aeropoto EDDK

Localização: Cologne Bonn Airport
Distância: 56 (km)

Metar:
EDDK 301320Z AUTO 30014KT 270V330 9999 FEW031 19/12 Q1006 TEMPO SHRA BKN020CB

Hora: 2024-05-30 15:20 CEST